Current Weather

Fond Du Lac County

Fond Du Lac, Wisconsin (KFLD)

Report from: Wednesday, April 24, 2024 11:53 PM CDT
Current time: Thursday, April 25, 2024 12:37 AM CDT

Nearby weather – Weather history – Daily summaries
Weather forecast

Temperature1.7°C (35.1°F)
Wind chill-1.1°C (30.1°F)
Dew point-5.0°C (23.0°F)
Winds 5 kts (2.6 m/s, 5.8 mph) South (180°)
Visibility10 mi. (16.1 km)
Clouds Sky clear
Altimeter30.31 in.Hg (1026 mB)
Relative humidity61 %
Density altitude-2,018 ft. (-615 m)
Sea-level pressure102.7 kPa (1027 mB, 30.33 in.Hg)
Remarks Fully automated report
Automated weather observing station with precipitation discriminator
Flight conditions Visual Meteorological Conditions
Raw dataKFLD 250453Z AUTO 18005KT 10SM CLR 02/M05 A3031 RMK AO2 SLP270 T00171050
An error has occurred. This application may no longer respond until reloaded. Reload 🗙